sensor_id;sensor_type;location;lat;lon;timestamp;pressure;altitude;pressure_sealevel;temperature;humidity
10688;BME280;5392;42.688;23.298;2024-03-08T00:00:26;94926.16;;;4.13;82.09
10688;BME280;5392;42.688;23.298;2024-03-08T00:02:52;94925.53;;;4.19;82.06
10688;BME280;5392;42.688;23.298;2024-03-08T00:05:19;94931.41;;;3.96;82.87
10688;BME280;5392;42.688;23.298;2024-03-08T00:07:45;94930.16;;;4.08;82.44
10688;BME280;5392;42.688;23.298;2024-03-08T00:10:11;94923.13;;;4.18;81.67
10688;BME280;5392;42.688;23.298;2024-03-08T00:12:41;94921.84;;;4.22;81.57
10688;BME280;5392;42.688;23.298;2024-03-08T00:15:14;94922.97;;;4.27;81.42
10688;BME280;5392;42.688;23.298;2024-03-08T00:17:41;94924.59;;;4.28;80.74
10688;BME280;5392;42.688;23.298;2024-03-08T00:20:07;94922.66;;;4.22;80.92
10688;BME280;5392;42.688;23.298;2024-03-08T00:22:37;94922.66;;;4.06;80.30
10688;BME280;5392;42.688;23.298;2024-03-08T00:25:03;94925.19;;;3.82;82.67
10688;BME280;5392;42.688;23.298;2024-03-08T00:27:29;94921.22;;;3.96;82.59
10688;BME280;5392;42.688;23.298;2024-03-08T00:29:58;94913.72;;;4.02;82.28
10688;BME280;5392;42.688;23.298;2024-03-08T00:32:24;94921.06;;;4.05;82.20
10688;BME280;5392;42.688;23.298;2024-03-08T00:34:50;94916.28;;;4.02;82.31
10688;BME280;5392;42.688;23.298;2024-03-08T00:37:22;94911.66;;;3.98;82.50
10688;BME280;5392;42.688;23.298;2024-03-08T00:39:49;94914.84;;;3.92;82.87
10688;BME280;5392;42.688;23.298;2024-03-08T00:42:18;94909.09;;;3.90;83.65
10688;BME280;5392;42.688;23.298;2024-03-08T00:44:43;94904.31;;;3.87;83.91
10688;BME280;5392;42.688;23.298;2024-03-08T00:47:09;94903.22;;;3.81;84.07
10688;BME280;5392;42.688;23.298;2024-03-08T00:49:35;94909.88;;;3.82;84.55
10688;BME280;5392;42.688;23.298;2024-03-08T00:52:04;94905.88;;;3.80;83.94
10688;BME280;5392;42.688;23.298;2024-03-08T00:54:32;94907.81;;;3.69;84.40
10688;BME280;5392;42.688;23.298;2024-03-08T00:56:57;94899.81;;;3.64;84.47
10688;BME280;5392;42.688;23.298;2024-03-08T00:59:23;94894.25;;;3.61;84.54
10688;BME280;5392;42.688;23.298;2024-03-08T01:01:48;94891.53;;;3.62;84.48
10688;BME280;5392;42.688;23.298;2024-03-08T01:04:14;94887.09;;;3.64;84.88
10688;BME280;5392;42.688;23.298;2024-03-08T01:06:39;94892.19;;;3.64;84.87
10688;BME280;5392;42.688;23.298;2024-03-08T01:09:05;94878.97;;;3.61;84.70
10688;BME280;5392;42.688;23.298;2024-03-08T01:11:33;94888.53;;;3.59;84.85
10688;BME280;5392;42.688;23.298;2024-03-08T01:13:59;94888.19;;;3.54;85.33
10688;BME280;5392;42.688;23.298;2024-03-08T01:16:24;94890.56;;;3.55;85.07
10688;BME280;5392;42.688;23.298;2024-03-08T01:18:50;94887.09;;;3.56;85.99
10688;BME280;5392;42.688;23.298;2024-03-08T01:21:15;94892.19;;;3.56;85.63
10688;BME280;5392;42.688;23.298;2024-03-08T01:23:41;94879.91;;;3.52;85.84
10688;BME280;5392;42.688;23.298;2024-03-08T01:26:07;94882.78;;;3.57;85.71
10688;BME280;5392;42.688;23.298;2024-03-08T01:28:33;94874.34;;;3.56;85.99
10688;BME280;5392;42.688;23.298;2024-03-08T01:31:00;94873.53;;;3.64;85.44
10688;BME280;5392;42.688;23.298;2024-03-08T01:33:26;94874.50;;;3.63;85.39
10688;BME280;5392;42.688;23.298;2024-03-08T01:35:52;94869.06;;;3.58;85.09
10688;BME280;5392;42.688;23.298;2024-03-08T01:38:18;94871.16;;;3.54;85.05
10688;BME280;5392;42.688;23.298;2024-03-08T01:40:44;94869.25;;;3.56;84.77
10688;BME280;5392;42.688;23.298;2024-03-08T01:43:22;94865.88;;;3.64;84.70
10688;BME280;5392;42.688;23.298;2024-03-08T01:45:48;94865.88;;;3.64;84.56
10688;BME280;5392;42.688;23.298;2024-03-08T01:48:15;94869.25;;;3.64;84.51
10688;BME280;5392;42.688;23.298;2024-03-08T01:50:40;94869.06;;;3.66;83.96
10688;BME280;5392;42.688;23.298;2024-03-08T01:53:07;94866.72;;;3.73;84.02
10688;BME280;5392;42.688;23.298;2024-03-08T01:55:36;94867.19;;;3.76;83.95
10688;BME280;5392;42.688;23.298;2024-03-08T01:58:04;94866.06;;;3.70;83.21
10688;BME280;5392;42.688;23.298;2024-03-08T02:00:31;94866.53;;;3.74;82.92
10688;BME280;5392;42.688;23.298;2024-03-08T02:02:58;94856.19;;;3.76;83.17
10688;BME280;5392;42.688;23.298;2024-03-08T02:05:24;94855.06;;;3.78;83.14
10688;BME280;5392;42.688;23.298;2024-03-08T02:07:49;94860.81;;;3.88;82.70
10688;BME280;5392;42.688;23.298;2024-03-08T02:10:15;94856.81;;;3.94;82.97
10688;BME280;5392;42.688;23.298;2024-03-08T02:12:41;94860.50;;;3.99;82.25
10688;BME280;5392;42.688;23.298;2024-03-08T02:15:07;94860.66;;;4.06;82.28
10688;BME280;5392;42.688;23.298;2024-03-08T02:17:33;94860.81;;;4.12;81.85
10688;BME280;5392;42.688;23.298;2024-03-08T02:19:59;94857.44;;;4.20;81.90
10688;BME280;5392;42.688;23.298;2024-03-08T02:22:27;94863.66;;;4.25;81.50
10688;BME280;5392;42.688;23.298;2024-03-08T02:24:55;94867.03;;;4.26;81.23
10688;BME280;5392;42.688;23.298;2024-03-08T02:27:27;94866.69;;;4.21;81.59
10688;BME280;5392;42.688;23.298;2024-03-08T02:29:57;94867.97;;;4.25;80.98
10688;BME280;5392;42.688;23.298;2024-03-08T02:32:23;94869.72;;;4.24;79.03
10688;BME280;5392;42.688;23.298;2024-03-08T02:34:49;94873.69;;;4.27;78.63
10688;BME280;5392;42.688;23.298;2024-03-08T02:37:18;94869.72;;;4.16;76.85
10688;BME280;5392;42.688;23.298;2024-03-08T02:39:43;94869.25;;;4.21;77.77
10688;BME280;5392;42.688;23.298;2024-03-08T02:42:09;94878.19;;;3.77;76.45
10688;BME280;5392;42.688;23.298;2024-03-08T02:44:34;94878.47;;;3.57;77.40
10688;BME280;5392;42.688;23.298;2024-03-08T02:47:00;94877.69;;;3.65;76.72
10688;BME280;5392;42.688;23.298;2024-03-08T02:49:26;94875.47;;;3.70;76.19
10688;BME280;5392;42.688;23.298;2024-03-08T02:51:52;94874.63;;;3.45;77.38
10688;BME280;5392;42.688;23.298;2024-03-08T02:54:18;94872.41;;;3.50;77.17
10688;BME280;5392;42.688;23.298;2024-03-08T02:56:45;94863.97;;;3.66;76.89
10688;BME280;5392;42.688;23.298;2024-03-08T02:59:12;94870.50;;;3.52;76.89
10688;BME280;5392;42.688;23.298;2024-03-08T03:01:38;94872.75;;;3.72;76.58
10688;BME280;5392;42.688;23.298;2024-03-08T03:04:04;94871.47;;;3.67;76.38
10688;BME280;5392;42.688;23.298;2024-03-08T03:06:29;94873.53;;;3.64;77.11
10688;BME280;5392;42.688;23.298;2024-03-08T03:08:55;94869.06;;;3.58;77.65
10688;BME280;5392;42.688;23.298;2024-03-08T03:11:22;94881.50;;;3.61;77.31
10688;BME280;5392;42.688;23.298;2024-03-08T03:13:48;94874.66;;;3.69;75.81
10688;BME280;5392;42.688;23.298;2024-03-08T03:16:17;94873.22;;;3.75;75.71
10688;BME280;5392;42.688;23.298;2024-03-08T03:18:44;94880.25;;;3.81;75.78
10688;BME280;5392;42.688;23.298;2024-03-08T03:21:10;94887.75;;;3.83;74.62
10688;BME280;5392;42.688;23.298;2024-03-08T03:23:38;94888.22;;;3.86;74.25
10688;BME280;5392;42.688;23.298;2024-03-08T03:26:05;94884.09;;;3.85;74.54
10688;BME280;5392;42.688;23.298;2024-03-08T03:28:32;94885.66;;;3.86;73.50
10688;BME280;5392;42.688;23.298;2024-03-08T03:30:59;94887.09;;;3.81;72.87
10688;BME280;5392;42.688;23.298;2024-03-08T03:33:24;94889.31;;;3.76;73.05
10688;BME280;5392;42.688;23.298;2024-03-08T03:35:50;94894.09;;;3.70;73.05
10688;BME280;5392;42.688;23.298;2024-03-08T03:38:17;94893.63;;;3.67;73.26
10688;BME280;5392;42.688;23.298;2024-03-08T03:40:43;94900.00;;;3.71;73.71
10688;BME280;5392;42.688;23.298;2024-03-08T03:43:10;94906.53;;;3.74;72.90
10688;BME280;5392;42.688;23.298;2024-03-08T03:45:36;94907.00;;;3.69;72.94
10688;BME280;5392;42.688;23.298;2024-03-08T03:48:05;94907.00;;;3.61;73.48
10688;BME280;5392;42.688;23.298;2024-03-08T03:50:31;94911.16;;;3.70;73.79
10688;BME280;5392;42.688;23.298;2024-03-08T03:52:59;94912.44;;;3.74;73.59
10688;BME280;5392;42.688;23.298;2024-03-08T03:55:25;94913.88;;;3.77;73.41
10688;BME280;5392;42.688;23.298;2024-03-08T03:57:50;94916.25;;;3.70;73.20
10688;BME280;5392;42.688;23.298;2024-03-08T04:00:16;94916.91;;;3.72;72.66
10688;BME280;5392;42.688;23.298;2024-03-08T04:02:42;94917.84;;;3.71;73.08
10688;BME280;5392;42.688;23.298;2024-03-08T04:05:09;94917.84;;;3.71;72.88
10688;BME280;5392;42.688;23.298;2024-03-08T04:07:35;94921.34;;;3.70;73.33
10688;BME280;5392;42.688;23.298;2024-03-08T04:10:02;94926.75;;;3.75;74.04
10688;BME280;5392;42.688;23.298;2024-03-08T04:12:28;94929.00;;;3.78;74.38
10688;BME280;5392;42.688;23.298;2024-03-08T04:14:55;94926.00;;;3.75;74.07
10688;BME280;5392;42.688;23.298;2024-03-08T04:17:21;94931.69;;;3.68;74.24
10688;BME280;5392;42.688;23.298;2024-03-08T04:19:47;94933.94;;;3.72;73.90
10688;BME280;5392;42.688;23.298;2024-03-08T04:22:14;94937.53;;;3.45;75.91
10688;BME280;5392;42.688;23.298;2024-03-08T04:24:39;94946.16;;;3.60;75.23
10688;BME280;5392;42.688;23.298;2024-03-08T04:27:06;94940.44;;;3.58;75.62
10688;BME280;5392;42.688;23.298;2024-03-08T04:29:31;94950.16;;;3.62;75.58
10688;BME280;5392;42.688;23.298;2024-03-08T04:31:58;94949.34;;;3.62;75.97
10688;BME280;5392;42.688;23.298;2024-03-08T04:34:23;94947.78;;;3.61;75.83
10688;BME280;5392;42.688;23.298;2024-03-08T04:36:49;94951.78;;;3.63;76.43
10688;BME280;5392;42.688;23.298;2024-03-08T04:39:15;94950.13;;;3.46;76.78
10688;BME280;5392;42.688;23.298;2024-03-08T04:41:42;94958.56;;;3.55;77.20
10688;BME280;5392;42.688;23.298;2024-03-08T04:44:09;94960.34;;;3.54;77.04
10688;BME280;5392;42.688;23.298;2024-03-08T04:46:35;94958.75;;;3.53;77.27
10688;BME280;5392;42.688;23.298;2024-03-08T04:49:01;94956.34;;;3.52;77.19
10688;BME280;5392;42.688;23.298;2024-03-08T04:51:27;94958.56;;;3.55;77.31
10688;BME280;5392;42.688;23.298;2024-03-08T04:53:52;94959.66;;;3.44;77.49
10688;BME280;5392;42.688;23.298;2024-03-08T04:56:18;94965.25;;;3.48;78.10
10688;BME280;5392;42.688;23.298;2024-03-08T04:58:45;94968.13;;;3.53;77.68
10688;BME280;5392;42.688;23.298;2024-03-08T05:01:13;94961.94;;;3.55;77.63
10688;BME280;5392;42.688;23.298;2024-03-08T05:03:39;94970.53;;;3.54;77.73
10688;BME280;5392;42.688;23.298;2024-03-08T05:06:04;94960.81;;;3.58;78.26
10688;BME280;5392;42.688;23.298;2024-03-08T05:08:30;94974.38;;;3.58;78.07
10688;BME280;5392;42.688;23.298;2024-03-08T05:10:56;94976.91;;;3.58;78.06
10688;BME280;5392;42.688;23.298;2024-03-08T05:13:21;94981.56;;;3.63;77.91
10688;BME280;5392;42.688;23.298;2024-03-08T05:15:49;94975.63;;;3.54;78.12
10688;BME280;5392;42.688;23.298;2024-03-08T05:18:15;94984.06;;;3.55;78.47
10688;BME280;5392;42.688;23.298;2024-03-08T05:20:41;94983.56;;;3.43;78.40
10688;BME280;5392;42.688;23.298;2024-03-08T05:23:07;94994.06;;;3.40;79.13
10688;BME280;5392;42.688;23.298;2024-03-08T05:25:33;94987.66;;;3.36;79.16
10688;BME280;5392;42.688;23.298;2024-03-08T05:27:58;94992.59;;;3.30;79.20
10688;BME280;5392;42.688;23.298;2024-03-08T05:30:24;95006.22;;;3.21;79.26
10688;BME280;5392;42.688;23.298;2024-03-08T05:32:50;95001.94;;;3.21;79.72
10688;BME280;5392;42.688;23.298;2024-03-08T05:35:15;95001.94;;;3.21;79.46
10688;BME280;5392;42.688;23.298;2024-03-08T05:37:41;95013.78;;;3.05;80.52
10688;BME280;5392;42.688;23.298;2024-03-08T05:40:10;95027.75;;;3.01;79.47
10688;BME280;5392;42.688;23.298;2024-03-08T05:42:36;95029.94;;;2.95;80.15
10688;BME280;5392;42.688;23.298;2024-03-08T05:45:05;95021.16;;;2.64;80.54
10688;BME280;5392;42.688;23.298;2024-03-08T05:47:35;95031.38;;;2.90;79.88
10688;BME280;5392;42.688;23.298;2024-03-08T05:50:00;95022.50;;;3.02;80.12
10688;BME280;5392;42.688;23.298;2024-03-08T05:52:27;95033.34;;;3.04;80.41
10688;BME280;5392;42.688;23.298;2024-03-08T05:54:52;95033.50;;;3.03;79.68
10688;BME280;5392;42.688;23.298;2024-03-08T05:57:18;95033.66;;;3.01;79.64
10688;BME280;5392;42.688;23.298;2024-03-08T05:59:44;95034.50;;;3.10;79.78
10688;BME280;5392;42.688;23.298;2024-03-08T06:02:09;95044.53;;;3.11;79.30
10688;BME280;5392;42.688;23.298;2024-03-08T06:04:35;95037.25;;;3.16;79.60
10688;BME280;5392;42.688;23.298;2024-03-08T06:07:00;95041.63;;;3.06;79.33
10688;BME280;5392;42.688;23.298;2024-03-08T06:09:28;95045.50;;;3.10;80.01
10688;BME280;5392;42.688;23.298;2024-03-08T06:11:54;95052.69;;;3.15;79.11
10688;BME280;5392;42.688;23.298;2024-03-08T06:14:20;95056.34;;;3.12;79.31
10688;BME280;5392;42.688;23.298;2024-03-08T06:16:46;95053.34;;;3.17;79.47
10688;BME280;5392;42.688;23.298;2024-03-08T06:19:12;95054.47;;;3.22;79.13
10688;BME280;5392;42.688;23.298;2024-03-08T06:21:38;95062.41;;;3.19;78.87
10688;BME280;5392;42.688;23.298;2024-03-08T06:24:04;95052.34;;;3.10;78.33
10688;BME280;5392;42.688;23.298;2024-03-08T06:26:29;95060.09;;;3.08;78.62
10688;BME280;5392;42.688;23.298;2024-03-08T06:28:55;95057.91;;;3.13;78.39
10688;BME280;5392;42.688;23.298;2024-03-08T06:31:21;95063.84;;;3.22;78.82
10688;BME280;5392;42.688;23.298;2024-03-08T06:33:46;95064.34;;;3.00;80.09
10688;BME280;5392;42.688;23.298;2024-03-08T06:36:16;95063.44;;;3.09;78.49
10688;BME280;5392;42.688;23.298;2024-03-08T06:38:47;95069.56;;;3.16;78.18
10688;BME280;5392;42.688;23.298;2024-03-08T06:41:12;95068.81;;;3.23;78.04
10688;BME280;5392;42.688;23.298;2024-03-08T06:43:47;95073.59;;;3.26;78.35
10688;BME280;5392;42.688;23.298;2024-03-08T06:46:17;95075.03;;;3.29;77.57
10688;BME280;5392;42.688;23.298;2024-03-08T06:48:43;95074.22;;;3.28;77.96
10688;BME280;5392;42.688;23.298;2024-03-08T06:51:10;95078.34;;;3.55;76.91
10688;BME280;5392;42.688;23.298;2024-03-08T06:53:36;95076.66;;;3.63;75.94
10688;BME280;5392;42.688;23.298;2024-03-08T06:56:02;95074.94;;;3.72;75.25
10688;BME280;5392;42.688;23.298;2024-03-08T06:58:28;95079.78;;;3.83;74.81
10688;BME280;5392;42.688;23.298;2024-03-08T07:00:54;95081.41;;;4.00;74.61
10688;BME280;5392;42.688;23.298;2024-03-08T07:03:23;95080.47;;;4.01;74.63
10688;BME280;5392;42.688;23.298;2024-03-08T07:05:49;95075.38;;;4.09;74.60
10688;BME280;5392;42.688;23.298;2024-03-08T07:08:15;95075.94;;;4.37;73.65
10688;BME280;5392;42.688;23.298;2024-03-08T07:10:42;95077.06;;;4.59;72.96
10688;BME280;5392;42.688;23.298;2024-03-08T07:13:08;95082.66;;;4.78;73.21
10688;BME280;5392;42.688;23.298;2024-03-08T07:15:34;95084.66;;;4.26;73.78
10688;BME280;5392;42.688;23.298;2024-03-08T07:18:01;95080.19;;;4.12;75.30
10688;BME280;5392;42.688;23.298;2024-03-08T07:20:26;95085.47;;;4.27;74.12
10688;BME280;5392;42.688;23.298;2024-03-08T07:22:52;95094.88;;;4.26;74.41
10688;BME280;5392;42.688;23.298;2024-03-08T07:25:18;95086.75;;;4.31;74.56
10688;BME280;5392;42.688;23.298;2024-03-08T07:27:48;95084.06;;;3.83;75.92
10688;BME280;5392;42.688;23.298;2024-03-08T07:30:13;95088.59;;;4.05;75.56
10688;BME280;5392;42.688;23.298;2024-03-08T07:32:59;95088.38;;;4.48;74.94
10688;BME280;5392;42.688;23.298;2024-03-08T07:35:27;95099.44;;;4.73;73.10
10688;BME280;5392;42.688;23.298;2024-03-08T07:37:54;95098.47;;;4.66;74.26
10688;BME280;5392;42.688;23.298;2024-03-08T07:40:23;95099.56;;;4.55;74.07
10688;BME280;5392;42.688;23.298;2024-03-08T07:42:49;95103.16;;;3.79;78.45
10688;BME280;5392;42.688;23.298;2024-03-08T07:45:16;95096.25;;;3.97;77.10
10688;BME280;5392;42.688;23.298;2024-03-08T07:47:42;95095.31;;;4.14;75.93
10688;BME280;5392;42.688;23.298;2024-03-08T07:50:08;95102.72;;;4.41;74.65
10688;BME280;5392;42.688;23.298;2024-03-08T07:52:34;95096.84;;;4.57;73.78
10688;BME280;5392;42.688;23.298;2024-03-08T07:55:01;95096.06;;;4.80;72.31
10688;BME280;5392;42.688;23.298;2024-03-08T07:57:26;95093.34;;;4.98;70.96
10688;BME280;5392;42.688;23.298;2024-03-08T07:59:52;95094.56;;;4.37;73.27
10688;BME280;5392;42.688;23.298;2024-03-08T08:02:17;95102.94;;;4.96;72.28
10688;BME280;5392;42.688;23.298;2024-03-08T08:04:43;95101.16;;;4.80;71.33
10688;BME280;5392;42.688;23.298;2024-03-08T08:07:10;95102.13;;;4.55;73.32
10688;BME280;5392;42.688;23.298;2024-03-08T08:09:36;95096.41;;;5.01;72.00
10688;BME280;5392;42.688;23.298;2024-03-08T08:12:03;95097.50;;;5.31;71.38
10688;BME280;5392;42.688;23.298;2024-03-08T08:14:29;95100.63;;;5.57;71.11
10688;BME280;5392;42.688;23.298;2024-03-08T08:16:56;95097.88;;;5.67;70.01
10688;BME280;5392;42.688;23.298;2024-03-08T08:19:22;95082.63;;;5.89;69.08
10688;BME280;5392;42.688;23.298;2024-03-08T08:21:48;95088.06;;;6.25;68.80
10688;BME280;5392;42.688;23.298;2024-03-08T08:24:14;95090.78;;;6.54;66.99
10688;BME280;5392;42.688;23.298;2024-03-08T08:26:40;95094.59;;;6.81;66.13
10688;BME280;5392;42.688;23.298;2024-03-08T08:29:06;95104.31;;;7.08;64.89
10688;BME280;5392;42.688;23.298;2024-03-08T08:31:32;95089.09;;;7.29;64.03
10688;BME280;5392;42.688;23.298;2024-03-08T08:33:58;95100.47;;;7.79;62.26
10688;BME280;5392;42.688;23.298;2024-03-08T08:36:26;95093.84;;;8.49;59.37
10688;BME280;5392;42.688;23.298;2024-03-08T08:38:55;95087.59;;;8.79;58.06
10688;BME280;5392;42.688;23.298;2024-03-08T08:41:23;95090.00;;;8.81;57.96
10688;BME280;5392;42.688;23.298;2024-03-08T08:43:48;95083.03;;;8.96;56.92
10688;BME280;5392;42.688;23.298;2024-03-08T08:46:19;95081.31;;;9.59;55.18
10688;BME280;5392;42.688;23.298;2024-03-08T08:48:44;95073.41;;;9.60;52.16
10688;BME280;5392;42.688;23.298;2024-03-08T08:51:13;95077.56;;;8.85;54.37
10688;BME280;5392;42.688;23.298;2024-03-08T08:53:39;95079.69;;;9.02;54.75
10688;BME280;5392;42.688;23.298;2024-03-08T08:56:11;95077.84;;;9.45;53.68
10688;BME280;5392;42.688;23.298;2024-03-08T08:58:44;95082.25;;;9.23;52.55
10688;BME280;5392;42.688;23.298;2024-03-08T09:01:10;95083.81;;;7.75;56.87
10688;BME280;5392;42.688;23.298;2024-03-08T09:03:36;95072.72;;;7.30;58.97
10688;BME280;5392;42.688;23.298;2024-03-08T09:06:04;95080.69;;;8.08;57.82
10688;BME280;5392;42.688;23.298;2024-03-08T09:08:30;95078.84;;;7.88;56.48
10688;BME280;5392;42.688;23.298;2024-03-08T09:10:55;95085.47;;;7.68;57.41
10688;BME280;5392;42.688;23.298;2024-03-08T09:13:21;95075.41;;;7.66;57.92
10688;BME280;5392;42.688;23.298;2024-03-08T09:15:46;95070.16;;;8.03;58.12
10688;BME280;5392;42.688;23.298;2024-03-08T09:18:12;95075.31;;;7.89;57.85
10688;BME280;5392;42.688;23.298;2024-03-08T09:20:56;95077.75;;;8.41;56.66
10688;BME280;5392;42.688;23.298;2024-03-08T09:23:22;95068.66;;;8.80;56.18
10688;BME280;5392;42.688;23.298;2024-03-08T09:25:48;95075.38;;;9.03;52.91
10688;BME280;5392;42.688;23.298;2024-03-08T09:28:14;95064.72;;;8.85;53.19
10688;BME280;5392;42.688;23.298;2024-03-08T09:30:39;95064.59;;;8.93;52.79
10688;BME280;5392;42.688;23.298;2024-03-08T09:33:05;95063.06;;;8.98;53.04
10688;BME280;5392;42.688;23.298;2024-03-08T09:35:31;95065.31;;;9.08;52.84
10688;BME280;5392;42.688;23.298;2024-03-08T09:37:57;95069.41;;;7.74;55.31
10688;BME280;5392;42.688;23.298;2024-03-08T09:40:23;95079.91;;;6.98;58.27
10688;BME280;5392;42.688;23.298;2024-03-08T09:42:51;95078.50;;;7.76;57.54
10688;BME280;5392;42.688;23.298;2024-03-08T09:45:20;95077.41;;;8.15;55.52
10688;BME280;5392;42.688;23.298;2024-03-08T09:47:47;95078.44;;;8.20;56.48
10688;BME280;5392;42.688;23.298;2024-03-08T09:50:14;95083.19;;;7.87;56.13
10688;BME280;5392;42.688;23.298;2024-03-08T09:52:47;95080.25;;;7.61;57.00
10688;BME280;5392;42.688;23.298;2024-03-08T09:55:12;95072.81;;;7.37;57.15
10688;BME280;5392;42.688;23.298;2024-03-08T09:57:40;95075.44;;;7.14;57.08
10688;BME280;5392;42.688;23.298;2024-03-08T10:00:06;95083.69;;;7.24;58.19
10688;BME280;5392;42.688;23.298;2024-03-08T10:02:46;95077.66;;;7.32;58.32
10688;BME280;5392;42.688;23.298;2024-03-08T10:05:12;95076.72;;;6.96;58.75
10688;BME280;5392;42.688;23.298;2024-03-08T10:07:39;95072.47;;;7.84;56.47
10688;BME280;5392;42.688;23.298;2024-03-08T10:10:05;95066.06;;;8.80;54.53
10688;BME280;5392;42.688;23.298;2024-03-08T10:12:30;95066.44;;;9.54;53.59
10688;BME280;5392;42.688;23.298;2024-03-08T10:14:58;95063.25;;;9.52;52.24
10688;BME280;5392;42.688;23.298;2024-03-08T10:17:24;95071.28;;;8.87;53.31
10688;BME280;5392;42.688;23.298;2024-03-08T10:19:51;95074.97;;;8.42;53.36
10688;BME280;5392;42.688;23.298;2024-03-08T10:22:19;95072.03;;;7.95;55.77
10688;BME280;5392;42.688;23.298;2024-03-08T10:24:47;95073.03;;;7.65;56.27
10688;BME280;5392;42.688;23.298;2024-03-08T10:27:14;95074.81;;;7.79;55.94
10688;BME280;5392;42.688;23.298;2024-03-08T10:29:41;95074.34;;;7.75;56.44
10688;BME280;5392;42.688;23.298;2024-03-08T10:32:09;95064.16;;;7.96;55.30
10688;BME280;5392;42.688;23.298;2024-03-08T10:34:35;95069.88;;;8.13;54.60
10688;BME280;5392;42.688;23.298;2024-03-08T10:37:04;95064.16;;;8.26;53.55
10688;BME280;5392;42.688;23.298;2024-03-08T10:39:34;95059.81;;;8.68;52.63
10688;BME280;5392;42.688;23.298;2024-03-08T10:42:03;95052.56;;;8.72;50.99
10688;BME280;5392;42.688;23.298;2024-03-08T10:47:02;95057.25;;;8.47;53.00
10688;BME280;5392;42.688;23.298;2024-03-08T10:49:32;95052.19;;;8.54;51.67
10688;BME280;5392;42.688;23.298;2024-03-08T10:52:04;95056.47;;;7.67;54.12
10688;BME280;5392;42.688;23.298;2024-03-08T10:54:34;95048.16;;;7.94;54.35
10688;BME280;5392;42.688;23.298;2024-03-08T10:57:05;95045.44;;;8.53;52.84
10688;BME280;5392;42.688;23.298;2024-03-08T10:59:31;95047.53;;;8.64;51.99
10688;BME280;5392;42.688;23.298;2024-03-08T11:01:59;95041.59;;;8.85;51.46
10688;BME280;5392;42.688;23.298;2024-03-08T11:04:25;95031.53;;;9.17;50.33
10688;BME280;5392;42.688;23.298;2024-03-08T11:06:51;95022.63;;;9.13;52.40
10688;BME280;5392;42.688;23.298;2024-03-08T11:09:38;95024.03;;;8.88;52.88
10688;BME280;5392;42.688;23.298;2024-03-08T11:12:26;95027.88;;;8.77;53.07
10688;BME280;5392;42.688;23.298;2024-03-08T11:14:56;95019.06;;;8.87;52.18
10688;BME280;5392;42.688;23.298;2024-03-08T11:19:55;95021.44;;;7.60;56.85
10688;BME280;5392;42.688;23.298;2024-03-08T11:22:27;95024.47;;;7.99;55.20
10688;BME280;5392;42.688;23.298;2024-03-08T11:24:59;95024.19;;;8.08;55.34
10688;BME280;5392;42.688;23.298;2024-03-08T11:27:33;95022.44;;;8.09;55.02
10688;BME280;5392;42.688;23.298;2024-03-08T11:30:05;95018.31;;;7.93;55.75
10688;BME280;5392;42.688;23.298;2024-03-08T11:32:37;95025.84;;;7.66;56.44
10688;BME280;5392;42.688;23.298;2024-03-08T11:35:18;95012.00;;;7.60;56.52
10688;BME280;5392;42.688;23.298;2024-03-08T11:37:44;95010.84;;;7.63;56.71
10688;BME280;5392;42.688;23.298;2024-03-08T11:40:13;95012.75;;;7.90;56.46
10688;BME280;5392;42.688;23.298;2024-03-08T11:42:48;95011.28;;;8.17;55.03
10688;BME280;5392;42.688;23.298;2024-03-08T11:45:17;95003.94;;;7.99;54.28
10688;BME280;5392;42.688;23.298;2024-03-08T11:47:43;95003.53;;;8.31;53.85
10688;BME280;5392;42.688;23.298;2024-03-08T11:50:12;95010.63;;;7.93;54.28
10688;BME280;5392;42.688;23.298;2024-03-08T11:52:37;95009.06;;;8.49;53.00
10688;BME280;5392;42.688;23.298;2024-03-08T11:55:03;95000.25;;;9.07;50.40
10688;BME280;5392;42.688;23.298;2024-03-08T11:57:30;94988.94;;;9.36;51.23
10688;BME280;5392;42.688;23.298;2024-03-08T11:59:58;95008.16;;;7.85;54.74
10688;BME280;5392;42.688;23.298;2024-03-08T12:02:26;95004.25;;;7.75;55.04
10688;BME280;5392;42.688;23.298;2024-03-08T12:04:59;94995.81;;;7.95;54.61
10688;BME280;5392;42.688;23.298;2024-03-08T12:07:26;94998.88;;;7.55;55.86
10688;BME280;5392;42.688;23.298;2024-03-08T12:10:18;94994.34;;;7.86;54.43
10688;BME280;5392;42.688;23.298;2024-03-08T12:12:49;95000.19;;;7.80;54.00
10688;BME280;5392;42.688;23.298;2024-03-08T12:15:17;95004.19;;;7.83;54.12
10688;BME280;5392;42.688;23.298;2024-03-08T12:17:44;94994.78;;;7.90;54.32
10688;BME280;5392;42.688;23.298;2024-03-08T12:20:15;95000.69;;;8.05;53.73
10688;BME280;5392;42.688;23.298;2024-03-08T12:22:45;94982.03;;;8.32;52.72
10688;BME280;5392;42.688;23.298;2024-03-08T12:25:14;94989.53;;;8.76;52.71
10688;BME280;5392;42.688;23.298;2024-03-08T12:27:41;94995.41;;;8.70;53.50
10688;BME280;5392;42.688;23.298;2024-03-08T12:30:26;94988.91;;;8.53;53.71
10688;BME280;5392;42.688;23.298;2024-03-08T12:32:57;94989.41;;;8.42;55.02
10688;BME280;5392;42.688;23.298;2024-03-08T12:35:25;94982.63;;;8.34;55.92
10688;BME280;5392;42.688;23.298;2024-03-08T12:37:58;94991.22;;;7.91;55.24
10688;BME280;5392;42.688;23.298;2024-03-08T12:40:29;94989.41;;;7.70;56.22
10688;BME280;5392;42.688;23.298;2024-03-08T12:42:55;94977.03;;;7.59;57.66
10688;BME280;5392;42.688;23.298;2024-03-08T12:45:22;94974.69;;;7.43;57.29
10688;BME280;5392;42.688;23.298;2024-03-08T12:47:52;94969.38;;;7.45;57.21
10688;BME280;5392;42.688;23.298;2024-03-08T12:50:19;94971.66;;;7.54;56.20
10688;BME280;5392;42.688;23.298;2024-03-08T12:52:45;94970.81;;;7.68;56.36
10688;BME280;5392;42.688;23.298;2024-03-08T12:55:10;94973.78;;;7.65;55.88
10688;BME280;5392;42.688;23.298;2024-03-08T12:57:37;94969.00;;;7.62;56.80
10688;BME280;5392;42.688;23.298;2024-03-08T13:00:04;94975.81;;;7.55;56.83
10688;BME280;5392;42.688;23.298;2024-03-08T13:02:30;94960.69;;;7.60;56.19
10688;BME280;5392;42.688;23.298;2024-03-08T13:04:58;94973.44;;;7.54;56.40
10688;BME280;5392;42.688;23.298;2024-03-08T13:07:24;94970.59;;;7.63;56.95
10688;BME280;5392;42.688;23.298;2024-03-08T13:09:53;94973.50;;;7.60;55.74
10688;BME280;5392;42.688;23.298;2024-03-08T13:12:19;94974.31;;;7.61;56.31
10688;BME280;5392;42.688;23.298;2024-03-08T13:14:48;94971.75;;;7.61;55.52